createdAt,value
2022-07-30T00:01:36.037Z,100.00
2022-07-30T00:04:04.654Z,100.00
2022-07-30T00:06:33.078Z,100.00
2022-07-30T00:09:01.336Z,100.00
2022-07-30T00:11:50.089Z,100.00
2022-07-30T00:14:21.397Z,100.00
2022-07-30T00:16:49.464Z,100.00
2022-07-30T00:19:20.390Z,100.00
2022-07-30T00:21:51.022Z,100.00
2022-07-30T00:24:20.128Z,100.00
2022-07-30T00:26:48.368Z,100.00
2022-07-30T00:29:16.890Z,100.00
2022-07-30T00:31:49.085Z,100.00
2022-07-30T00:34:30.416Z,100.00
2022-07-30T00:36:57.774Z,100.00
2022-07-30T00:39:25.204Z,100.00
2022-07-30T00:42:15.277Z,100.00
2022-07-30T00:44:43.537Z,100.00
2022-07-30T00:47:15.564Z,100.00
2022-07-30T00:49:44.467Z,100.00
2022-07-30T00:52:13.931Z,100.00
2022-07-30T00:54:46.011Z,100.00
2022-07-30T00:57:18.221Z,100.00
2022-07-30T00:59:46.218Z,100.00
2022-07-30T01:02:41.268Z,100.00
2022-07-30T01:05:14.817Z,100.00
2022-07-30T01:07:42.287Z,100.00
2022-07-30T01:10:16.328Z,100.00
2022-07-30T01:13:09.293Z,100.00
2022-07-30T01:15:39.011Z,100.00
2022-07-30T01:18:10.551Z,100.00
2022-07-30T01:20:46.135Z,100.00
2022-07-30T01:23:36.970Z,100.00
2022-07-30T01:26:15.270Z,100.00
2022-07-30T01:28:54.308Z,100.00
2022-07-30T01:31:25.715Z,100.00
2022-07-30T01:34:01.859Z,100.00
2022-07-30T01:36:42.783Z,100.00
2022-07-30T01:39:11.873Z,100.00
2022-07-30T01:41:42.731Z,100.00
2022-07-30T01:44:15.329Z,100.00
2022-07-30T01:46:56.080Z,100.00
2022-07-30T01:49:39.589Z,100.00
2022-07-30T01:52:10.133Z,100.00
2022-07-30T01:54:39.666Z,100.00
2022-07-30T01:57:18.919Z,100.00
2022-07-30T01:59:50.707Z,100.00
2022-07-30T02:02:18.846Z,100.00
2022-07-30T02:04:54.345Z,100.00
2022-07-30T02:07:59.351Z,100.00
2022-07-30T02:10:51.616Z,100.00
2022-07-30T02:13:27.068Z,100.00
2022-07-30T02:16:09.725Z,100.00
2022-07-30T02:19:04.363Z,100.00
2022-07-30T02:21:39.221Z,100.00
2022-07-30T02:24:13.083Z,100.00
2022-07-30T02:26:44.523Z,100.00
2022-07-30T02:29:20.098Z,100.00
2022-07-30T02:31:48.719Z,100.00
2022-07-30T02:34:24.603Z,100.00
2022-07-30T02:36:54.694Z,100.00
2022-07-30T02:39:34.196Z,100.00
2022-07-30T02:42:21.568Z,100.00
2022-07-30T02:45:13.630Z,100.00
2022-07-30T02:47:42.886Z,100.00
2022-07-30T02:50:14.443Z,100.00
2022-07-30T02:52:49.724Z,100.00
2022-07-30T02:55:18.847Z,100.00
2022-07-30T02:57:49.039Z,100.00
2022-07-30T03:00:24.932Z,100.00
2022-07-30T03:02:59.957Z,100.00
2022-07-30T03:05:32.486Z,100.00
2022-07-30T03:08:03.771Z,100.00
2022-07-30T03:10:56.395Z,100.00
2022-07-30T03:13:24.960Z,100.00
2022-07-30T03:15:54.235Z,100.00
2022-07-30T03:18:24.590Z,100.00
2022-07-30T03:20:58.370Z,100.00
2022-07-30T03:23:25.785Z,100.00
2022-07-30T03:26:05.690Z,100.00
2022-07-30T03:28:37.065Z,100.00
2022-07-30T03:31:05.888Z,100.00
2022-07-30T03:33:40.663Z,100.00
2022-07-30T03:36:13.597Z,100.00
2022-07-30T03:38:42.900Z,100.00
2022-07-30T03:41:12.153Z,100.00
2022-07-30T03:43:49.908Z,100.00
2022-07-30T03:46:18.401Z,100.00
2022-07-30T03:48:52.902Z,100.00
2022-07-30T03:51:25.455Z,100.00
2022-07-30T03:54:03.210Z,100.00
2022-07-30T03:56:36.464Z,100.00
2022-07-30T03:59:04.773Z,100.00
2022-07-30T04:01:32.926Z,100.00
2022-07-30T04:04:10.634Z,100.00
2022-07-30T04:06:40.909Z,100.00
2022-07-30T04:09:09.414Z,100.00
2022-07-30T04:11:41.612Z,100.00
2022-07-30T04:14:10.168Z,100.00
2022-07-30T04:16:56.389Z,100.00
2022-07-30T04:19:28.947Z,100.00
2022-07-30T04:21:59.061Z,100.00
2022-07-30T04:24:28.910Z,100.00
2022-07-30T04:26:59.738Z,100.00
2022-07-30T04:29:29.426Z,100.00
2022-07-30T04:31:58.151Z,100.00
2022-07-30T04:34:28.912Z,100.00
2022-07-30T04:37:05.125Z,100.00
2022-07-30T04:39:34.226Z,100.00
2022-07-30T04:42:07.367Z,100.00
2022-07-30T04:44:34.767Z,100.00
2022-07-30T04:47:07.897Z,100.00
2022-07-30T04:49:37.989Z,100.00
2022-07-30T04:52:08.516Z,100.00
2022-07-30T04:54:44.061Z,100.00
2022-07-30T04:57:13.267Z,100.00
2022-07-30T04:59:42.458Z,100.00
2022-07-30T05:02:12.401Z,100.00
2022-07-30T05:04:44.984Z,100.00
2022-07-30T05:07:15.016Z,100.00
2022-07-30T05:09:44.748Z,100.00
2022-07-30T05:12:12.868Z,100.00
2022-07-30T05:14:46.576Z,100.00
2022-07-30T05:17:15.242Z,100.00
2022-07-30T05:19:43.259Z,100.00
2022-07-30T05:22:11.409Z,100.00
2022-07-30T05:24:38.493Z,100.00
2022-07-30T05:27:06.540Z,100.00
2022-07-30T05:29:36.714Z,100.00
2022-07-30T05:32:07.328Z,100.00
2022-07-30T05:34:39.987Z,100.00
2022-07-30T05:37:07.352Z,100.00
2022-07-30T05:40:02.956Z,100.00
2022-07-30T05:42:30.146Z,100.00
2022-07-30T05:44:58.217Z,100.00
2022-07-30T05:47:26.876Z,100.00
2022-07-30T05:50:02.873Z,100.00
2022-07-30T05:52:36.192Z,100.00
2022-07-30T05:55:11.397Z,100.00
2022-07-30T05:57:39.328Z,99.95
2022-07-30T06:00:12.665Z,98.49
2022-07-30T06:02:41.007Z,98.58
2022-07-30T06:05:09.293Z,98.73
2022-07-30T06:07:36.350Z,98.15
2022-07-30T06:10:05.024Z,98.02
2022-07-30T06:12:32.171Z,98.08
2022-07-30T06:14:59.601Z,96.13
2022-07-30T06:17:27.636Z,95.71
2022-07-30T06:19:54.700Z,95.80
2022-07-30T06:22:25.804Z,95.05
2022-07-30T06:24:53.219Z,95.61
2022-07-30T06:27:21.971Z,94.23
2022-07-30T06:29:49.207Z,92.90
2022-07-30T06:32:17.773Z,91.55
2022-07-30T06:34:44.787Z,89.47
2022-07-30T06:37:13.030Z,90.12
2022-07-30T06:39:56.677Z,89.03
2022-07-30T06:42:24.852Z,88.38
2022-07-30T06:44:53.076Z,88.50
2022-07-30T06:47:26.387Z,86.84
2022-07-30T06:49:54.561Z,87.19
2022-07-30T06:52:21.684Z,86.89
2022-07-30T06:54:49.007Z,86.06
2022-07-30T06:57:19.147Z,86.11
2022-07-30T06:59:56.209Z,85.63
2022-07-30T07:02:24.823Z,84.19
2022-07-30T07:04:53.013Z,83.01
2022-07-30T07:07:40.238Z,82.95
2022-07-30T07:10:09.112Z,83.58
2022-07-30T07:12:38.605Z,82.49
2022-07-30T07:15:07.290Z,83.43
2022-07-30T07:17:35.752Z,85.01
2022-07-30T07:20:05.010Z,85.58
2022-07-30T07:22:33.080Z,84.57
2022-07-30T07:25:00.077Z,83.90
2022-07-30T07:27:34.610Z,84.77
2022-07-30T07:30:05.943Z,85.12
2022-07-30T07:32:34.603Z,84.59
2022-07-30T07:35:02.055Z,85.10
2022-07-30T07:37:29.132Z,85.18
2022-07-30T07:39:57.614Z,82.91
2022-07-30T07:42:26.337Z,83.33
2022-07-30T07:44:53.502Z,83.77
2022-07-30T07:47:26.443Z,83.67
2022-07-30T07:50:05.972Z,83.43
2022-07-30T07:52:33.949Z,86.34
2022-07-30T07:55:08.572Z,85.42
2022-07-30T07:57:42.987Z,84.14
2022-07-30T08:00:12.192Z,84.21
2022-07-30T08:02:42.217Z,85.14
2022-07-30T08:05:10.863Z,86.26
2022-07-30T08:07:40.823Z,84.29
2022-07-30T08:10:09.040Z,85.05
2022-07-30T08:12:36.232Z,85.66
2022-07-30T08:15:04.200Z,86.41
2022-07-30T08:17:32.270Z,87.03
2022-07-30T08:20:01.025Z,85.90
2022-07-30T08:22:30.408Z,86.88
2022-07-30T08:24:57.442Z,87.23
2022-07-30T08:27:24.530Z,87.33
2022-07-30T08:29:57.001Z,86.12
2022-07-30T08:32:27.610Z,86.39
2022-07-30T08:34:54.796Z,86.14
2022-07-30T08:37:21.840Z,87.10
2022-07-30T08:39:48.859Z,86.27
2022-07-30T08:42:17.052Z,87.20
2022-07-30T08:45:09.438Z,90.62
2022-07-30T08:47:40.434Z,94.31
2022-07-30T08:50:09.083Z,94.24
2022-07-30T08:52:37.936Z,96.93
2022-07-30T08:55:05.860Z,99.72
2022-07-30T08:57:35.571Z,100.00
2022-07-30T09:00:10.273Z,100.00
2022-07-30T09:02:38.313Z,100.00
2022-07-30T09:05:06.512Z,100.00
2022-07-30T09:07:36.940Z,100.00
2022-07-30T09:10:05.943Z,100.00
2022-07-30T09:12:45.021Z,100.00
2022-07-30T09:15:20.579Z,100.00
2022-07-30T09:18:07.645Z,100.00
2022-07-30T09:20:46.804Z,100.00
2022-07-30T09:23:41.708Z,100.00
2022-07-30T09:26:21.025Z,100.00
2022-07-30T09:28:50.137Z,100.00
2022-07-30T09:31:18.832Z,100.00
2022-07-30T09:33:48.972Z,100.00
2022-07-30T09:36:20.341Z,100.00
2022-07-30T09:39:10.953Z,100.00
2022-07-30T09:41:40.019Z,100.00
2022-07-30T09:44:08.013Z,100.00
2022-07-30T09:46:53.768Z,100.00
2022-07-30T09:49:27.210Z,100.00
2022-07-30T09:52:07.801Z,100.00
2022-07-30T09:55:00.431Z,100.00
2022-07-30T09:57:28.532Z,100.00
2022-07-30T10:00:01.757Z,100.00
2022-07-30T10:03:00.918Z,100.00
2022-07-30T10:05:50.708Z,100.00
2022-07-30T10:08:20.371Z,100.00
2022-07-30T10:11:09.541Z,100.00
2022-07-30T10:13:45.761Z,100.00
2022-07-30T10:16:21.863Z,100.00
2022-07-30T10:19:03.632Z,100.00
2022-07-30T10:21:43.404Z,100.00
2022-07-30T10:24:12.824Z,100.00
2022-07-30T10:26:42.903Z,100.00
2022-07-30T10:29:18.799Z,100.00
2022-07-30T10:32:04.179Z,100.00
2022-07-30T10:34:42.626Z,100.00
2022-07-30T10:37:12.789Z,100.00
2022-07-30T10:40:10.860Z,100.00
2022-07-30T10:43:02.696Z,100.00
2022-07-30T10:46:09.287Z,100.00
2022-07-30T10:49:19.544Z,100.00
2022-07-30T10:52:18.368Z,100.00
2022-07-30T10:55:12.800Z,100.00
2022-07-30T10:58:03.952Z,100.00
2022-07-30T11:00:57.266Z,100.00
2022-07-30T11:03:41.014Z,100.00
2022-07-30T11:06:16.368Z,100.00
2022-07-30T11:08:48.073Z,100.00
2022-07-30T11:12:01.624Z,100.00
2022-07-30T11:14:10.634Z,100.00
2022-07-30T11:16:38.626Z,100.00
2022-07-30T11:19:56.662Z,100.00
2022-07-30T11:22:25.656Z,100.00
2022-07-30T11:24:55.193Z,100.00
2022-07-30T11:27:42.393Z,100.00
2022-07-30T11:30:23.562Z,100.00
2022-07-30T11:33:15.774Z,100.00
2022-07-30T11:35:45.005Z,100.00
2022-07-30T11:38:18.948Z,100.00
2022-07-30T11:40:46.229Z,100.00
2022-07-30T11:43:36.190Z,100.00
2022-07-30T11:46:28.507Z,100.00
2022-07-30T11:49:00.688Z,100.00
2022-07-30T11:51:45.741Z,100.00
2022-07-30T11:54:14.312Z,100.00
2022-07-30T11:57:24.583Z,100.00
2022-07-30T12:00:24.826Z,100.00
2022-07-30T12:03:03.819Z,100.00
2022-07-30T12:05:40.708Z,100.00
2022-07-30T12:08:08.678Z,100.00
2022-07-30T12:11:01.603Z,100.00
2022-07-30T12:13:45.083Z,100.00
2022-07-30T12:16:17.999Z,100.00
2022-07-30T12:18:53.594Z,100.00
2022-07-30T12:21:21.814Z,100.00
2022-07-30T12:24:01.070Z,100.00
2022-07-30T12:26:36.859Z,100.00
2022-07-30T12:29:14.797Z,100.00
2022-07-30T12:31:46.557Z,100.00
2022-07-30T12:34:35.154Z,100.00
2022-07-30T12:37:15.564Z,100.00
2022-07-30T12:39:44.891Z,100.00
2022-07-30T12:43:00.453Z,100.00
2022-07-30T12:45:51.538Z,100.00
2022-07-30T12:48:34.752Z,100.00
2022-07-30T12:51:09.148Z,100.00
2022-07-30T12:53:37.560Z,100.00
2022-07-30T12:56:16.588Z,100.00
2022-07-30T12:58:48.796Z,100.00
2022-07-30T13:01:39.606Z,100.00
2022-07-30T13:04:10.779Z,100.00
2022-07-30T13:06:42.827Z,100.00
2022-07-30T13:09:22.519Z,100.00
2022-07-30T13:11:51.627Z,100.00
2022-07-30T13:14:37.928Z,100.00
2022-07-30T13:17:07.615Z,100.00
2022-07-30T13:19:37.105Z,100.00
2022-07-30T13:22:13.779Z,100.00
2022-07-30T13:24:41.930Z,100.00
2022-07-30T13:27:10.105Z,100.00
2022-07-30T13:29:37.080Z,100.00
2022-07-30T13:32:04.577Z,100.00
2022-07-30T13:34:31.802Z,100.00
2022-07-30T13:37:02.085Z,100.00
2022-07-30T13:39:31.324Z,100.00
2022-07-30T13:42:04.934Z,100.00
2022-07-30T13:44:32.181Z,100.00
2022-07-30T13:47:08.826Z,100.00
2022-07-30T13:49:39.335Z,100.00
2022-07-30T13:52:06.594Z,100.00
2022-07-30T13:54:34.815Z,100.00
2022-07-30T13:57:04.404Z,100.00
2022-07-30T13:59:31.764Z,100.00
2022-07-30T14:02:06.600Z,100.00
2022-07-30T14:04:35.912Z,100.00
2022-07-30T14:07:06.175Z,100.00
2022-07-30T14:09:33.458Z,100.00
2022-07-30T14:12:12.699Z,100.00
2022-07-30T14:14:40.123Z,100.00
2022-07-30T14:17:08.428Z,100.00
2022-07-30T14:19:56.258Z,100.00
2022-07-30T14:22:24.401Z,100.00
2022-07-30T14:24:51.471Z,100.00
2022-07-30T14:27:20.752Z,100.00
2022-07-30T14:29:50.875Z,100.00
2022-07-30T14:32:18.617Z,100.00
2022-07-30T14:34:49.216Z,100.00
2022-07-30T14:37:20.372Z,100.00
2022-07-30T14:39:49.454Z,100.00
2022-07-30T14:42:25.867Z,100.00
2022-07-30T14:44:56.964Z,100.00
2022-07-30T14:47:24.370Z,100.00
2022-07-30T14:50:13.889Z,100.00
2022-07-30T14:53:00.299Z,100.00
2022-07-30T14:55:31.449Z,100.00
2022-07-30T14:58:08.013Z,100.00
2022-07-30T15:04:15.786Z,100.00
2022-07-30T15:06:43.479Z,100.00
2022-07-30T15:09:10.941Z,100.00
2022-07-30T15:12:08.772Z,100.00
2022-07-30T15:14:30.975Z,100.00
2022-07-30T15:17:04.554Z,100.00
2022-07-30T15:19:32.611Z,100.00
2022-07-30T15:22:31.772Z,100.00
2022-07-30T15:25:00.768Z,100.00
2022-07-30T15:27:34.087Z,100.00
2022-07-30T15:30:04.624Z,100.00
2022-07-30T15:32:37.751Z,100.00
2022-07-30T15:35:10.601Z,100.00
2022-07-30T15:37:41.383Z,100.00
2022-07-30T15:40:08.768Z,100.00
2022-07-30T15:42:35.915Z,100.00
2022-07-30T15:45:17.234Z,100.00
2022-07-30T15:47:45.476Z,100.00
2022-07-30T15:50:13.882Z,100.00
2022-07-30T15:52:41.069Z,100.00
2022-07-30T15:55:09.924Z,100.00
2022-07-30T15:57:37.126Z,100.00
2022-07-30T16:00:08.097Z,100.00
2022-07-30T16:02:38.213Z,100.00
2022-07-30T16:05:09.497Z,100.00
2022-07-30T16:07:41.974Z,100.00
2022-07-30T16:10:10.360Z,100.00
2022-07-30T16:12:37.404Z,100.00
2022-07-30T16:15:07.350Z,100.00
2022-07-30T16:17:37.214Z,100.00
2022-07-30T16:20:10.735Z,100.00
2022-07-30T16:22:44.082Z,100.00
2022-07-30T16:25:11.873Z,100.00
2022-07-30T16:27:39.024Z,100.00
2022-07-30T16:30:29.575Z,100.00
2022-07-30T16:33:18.841Z,100.00
2022-07-30T16:35:58.057Z,100.00
2022-07-30T16:38:33.092Z,100.00
2022-07-30T16:41:25.317Z,100.00
2022-07-30T16:43:52.326Z,100.00
2022-07-30T16:46:25.668Z,100.00
2022-07-30T16:48:55.971Z,100.00
2022-07-30T16:51:53.469Z,100.00
2022-07-30T16:54:28.740Z,100.00
2022-07-30T16:57:03.985Z,100.00
2022-07-30T16:59:37.518Z,100.00
2022-07-30T17:02:08.737Z,100.00
2022-07-30T17:04:56.046Z,100.00
2022-07-30T17:07:26.165Z,100.00
2022-07-30T17:09:53.974Z,100.00
2022-07-30T17:12:40.309Z,100.00
2022-07-30T17:15:17.122Z,100.00
2022-07-30T17:18:06.049Z,100.00
2022-07-30T17:20:43.172Z,100.00
2022-07-30T17:23:24.724Z,100.00
2022-07-30T17:26:15.761Z,100.00
2022-07-30T17:28:53.854Z,100.00
2022-07-30T17:31:25.908Z,100.00
2022-07-30T17:33:59.762Z,100.00
2022-07-30T17:36:37.518Z,100.00
2022-07-30T17:39:06.528Z,100.00
2022-07-30T17:41:58.956Z,100.00
2022-07-30T17:44:56.579Z,100.00
2022-07-30T17:47:25.670Z,100.00
2022-07-30T17:49:53.722Z,100.00
2022-07-30T17:52:35.222Z,100.00
2022-07-30T17:55:03.418Z,100.00
2022-07-30T17:57:57.516Z,100.00
2022-07-30T18:00:32.184Z,100.00
2022-07-30T18:03:09.609Z,100.00
2022-07-30T18:05:51.331Z,100.00
2022-07-30T18:08:20.394Z,100.00
2022-07-30T18:10:50.595Z,100.00
2022-07-30T18:13:26.651Z,100.00
2022-07-30T18:16:28.882Z,100.00
2022-07-30T18:18:56.299Z,100.00
2022-07-30T18:21:38.507Z,100.00
2022-07-30T18:24:17.968Z,100.00
2022-07-30T18:27:01.160Z,100.00
2022-07-30T18:29:34.614Z,100.00
2022-07-30T18:32:06.303Z,100.00
2022-07-30T18:35:12.042Z,100.00
2022-07-30T18:37:41.757Z,100.00
2022-07-30T18:40:12.089Z,100.00
2022-07-30T18:42:59.564Z,100.00
2022-07-30T18:45:37.083Z,100.00
2022-07-30T18:48:05.039Z,100.00
2022-07-30T18:50:47.091Z,100.00
2022-07-30T18:53:36.869Z,100.00
2022-07-30T18:56:20.580Z,100.00
2022-07-30T18:59:01.516Z,100.00
2022-07-30T19:01:39.445Z,100.00
2022-07-30T19:04:32.221Z,100.00
2022-07-30T19:07:01.518Z,100.00
2022-07-30T19:09:28.687Z,100.00
2022-07-30T19:12:14.263Z,100.00
2022-07-30T19:14:57.278Z,100.00
2022-07-30T19:18:28.134Z,100.00
2022-07-30T19:21:32.302Z,100.00
2022-07-30T19:24:00.526Z,100.00
2022-07-30T19:26:28.253Z,100.00
2022-07-30T19:28:57.780Z,100.00
2022-07-30T19:31:26.529Z,100.00
2022-07-30T19:34:01.830Z,100.00
2022-07-30T19:36:37.463Z,100.00
2022-07-30T19:39:07.444Z,100.00
2022-07-30T19:41:41.597Z,100.00
2022-07-30T19:44:11.700Z,100.00
2022-07-30T19:46:41.426Z,100.00
2022-07-30T19:49:11.419Z,100.00
2022-07-30T19:52:10.747Z,100.00
2022-07-30T19:54:38.829Z,100.00
2022-07-30T19:57:06.111Z,100.00
2022-07-30T19:59:55.807Z,100.00
2022-07-30T20:02:22.703Z,100.00
2022-07-30T20:04:51.787Z,100.00
2022-07-30T20:07:18.860Z,100.00
2022-07-30T20:09:48.639Z,100.00
2022-07-30T20:12:21.451Z,100.00
2022-07-30T20:14:53.356Z,100.00
2022-07-30T20:17:20.558Z,100.00
2022-07-30T20:19:48.867Z,100.00
2022-07-30T20:22:20.595Z,100.00
2022-07-30T20:24:49.109Z,100.00
2022-07-30T20:27:36.073Z,100.00
2022-07-30T20:30:17.501Z,100.00
2022-07-30T20:32:53.736Z,100.00
2022-07-30T20:35:28.293Z,100.00
2022-07-30T20:38:10.400Z,100.00
2022-07-30T20:40:47.659Z,100.00
2022-07-30T20:43:19.055Z,100.00
2022-07-30T20:45:50.616Z,100.00
2022-07-30T20:48:31.454Z,100.00
2022-07-30T20:51:09.531Z,100.00
2022-07-30T20:53:37.714Z,100.00
2022-07-30T20:56:05.059Z,100.00
2022-07-30T20:58:33.105Z,100.00
2022-07-30T21:01:00.863Z,100.00
2022-07-30T21:03:32.025Z,100.00
2022-07-30T21:06:14.854Z,100.00
2022-07-30T21:08:41.823Z,100.00
2022-07-30T21:11:09.609Z,100.00
2022-07-30T21:14:06.577Z,100.00
2022-07-30T21:16:39.580Z,100.00
2022-07-30T21:19:26.044Z,100.00
2022-07-30T21:22:14.560Z,100.00
2022-07-30T21:24:45.702Z,100.00
2022-07-30T21:27:41.404Z,100.00
2022-07-30T21:30:10.933Z,100.00
2022-07-30T21:33:15.186Z,100.00
2022-07-30T21:36:33.293Z,100.00
2022-07-30T21:39:29.305Z,100.00
2022-07-30T21:41:59.301Z,100.00
2022-07-30T21:44:27.524Z,100.00
2022-07-30T21:47:00.771Z,100.00
2022-07-30T21:52:49.738Z,100.00
2022-07-30T21:55:21.514Z,100.00
2022-07-30T21:57:50.798Z,100.00
2022-07-30T22:00:50.351Z,100.00
2022-07-30T22:04:04.311Z,100.00
2022-07-30T22:06:54.798Z,100.00
2022-07-30T22:09:34.435Z,100.00
2022-07-30T22:13:07.486Z,100.00
2022-07-30T22:16:38.517Z,100.00
2022-07-30T22:19:15.867Z,100.00
2022-07-30T22:22:26.646Z,100.00
2022-07-30T22:25:01.611Z,100.00
2022-07-30T22:27:39.969Z,100.00
2022-07-30T22:30:18.558Z,100.00
2022-07-30T22:32:46.829Z,100.00
2022-07-30T22:35:17.010Z,100.00
2022-07-30T22:37:49.991Z,100.00
2022-07-30T22:40:16.940Z,100.00
2022-07-30T22:42:49.536Z,100.00
2022-07-30T22:45:17.204Z,100.00
2022-07-30T22:48:10.072Z,100.00
2022-07-30T22:50:39.886Z,100.00
2022-07-30T22:53:23.439Z,100.00
2022-07-30T22:55:55.081Z,100.00
2022-07-30T22:58:29.696Z,100.00
2022-07-30T23:00:56.781Z,100.00
2022-07-30T23:03:43.506Z,100.00
2022-07-30T23:06:14.667Z,100.00
2022-07-30T23:08:43.281Z,100.00
2022-07-30T23:11:11.619Z,100.00
2022-07-30T23:13:47.928Z,100.00
2022-07-30T23:16:16.904Z,100.00
2022-07-30T23:18:49.044Z,100.00
2022-07-30T23:21:32.211Z,100.00
2022-07-30T23:24:47.931Z,100.00
2022-07-30T23:27:17.147Z,100.00
2022-07-30T23:30:11.483Z,100.00
2022-07-30T23:32:45.543Z,100.00
2022-07-30T23:35:21.029Z,100.00
2022-07-30T23:38:00.307Z,100.00
2022-07-30T23:40:35.935Z,100.00
2022-07-30T23:43:32.054Z,100.00
2022-07-30T23:46:00.574Z,100.00
2022-07-30T23:48:44.197Z,100.00
2022-07-30T23:51:12.283Z,100.00
2022-07-30T23:53:41.493Z,100.00
2022-07-30T23:56:16.969Z,100.00
2022-07-30T23:58:48.747Z,100.00
